Time;durP1;ratioP1;P1;durP2;ratioP2;P2;SDS_P1;SDS_P2;PMS_P1;PMS_P2;Temp;Humidity;BMP_temperature;BMP_pressure;BME280_temperature;BME280_humidity;BME280_pressure;Samples;Min_cycle;Max_cycle;Signal;HPM_P1;HPM_P2
2022/03/29 00:01:54;;;;;;;5.15;4.75;;;;;;;;;;5068359;28;20037;-54
2022/03/29 00:04:19;;;;;;;5.53;5.03;;;;;;;;;;5071815;28;20032;-53
2022/03/29 00:06:45;;;;;;;5.40;4.90;;;;;;;;;;5052691;28;20510;-51
2022/03/29 00:09:10;;;;;;;6.22;5.57;;;;;;;;;;5073875;28;20489;-53
2022/03/29 00:11:35;;;;;;;5.40;4.95;;;;;;;;;;5071862;28;20040;-53
2022/03/29 00:14:02;;;;;;;6.18;5.68;;;;;;;;;;5072455;28;20032;-53
2022/03/29 00:16:28;;;;;;;6.15;5.65;;;;;;;;;;5066731;28;20048;-52
2022/03/29 00:18:53;;;;;;;5.78;5.38;;;;;;;;;;5070777;28;20024;-50
2022/03/29 00:21:19;;;;;;;6.82;5.53;;;;;;;;;;5070818;28;20070;-51
2022/03/29 00:23:44;;;;;;;6.45;5.95;;;;;;;;;;5071015;28;20032;-53
2022/03/29 00:26:09;;;;;;;5.05;4.65;;;;;;;;;;5072377;28;20107;-54
2022/03/29 00:28:35;;;;;;;6.85;6.15;;;;;;;;;;5073774;28;20029;-50
2022/03/29 00:31:00;;;;;;;6.07;5.57;;;;;;;;;;5073347;28;20480;-51
2022/03/29 00:33:25;;;;;;;5.55;5.15;;;;;;;;;;5068158;28;20482;-53
2022/03/29 00:35:51;;;;;;;6.03;5.53;;;;;;;;;;5073786;28;20040;-50
2022/03/29 00:38:16;;;;;;;6.35;5.75;;;;;;;;;;5068607;28;20107;-50
2022/03/29 00:40:41;;;;;;;6.05;5.45;;;;;;;;;;5072565;28;20357;-49
2022/03/29 00:43:08;;;;;;;6.18;5.57;;;;;;;;;;5072324;28;20556;-49
2022/03/29 00:45:35;;;;;;;5.63;5.13;;;;;;;;;;5071371;28;20032;-50
2022/03/29 00:48:01;;;;;;;5.60;5.13;;;;;;;;;;5069445;28;20095;-50
2022/03/29 00:50:26;;;;;;;5.63;5.13;;;;;;;;;;5072896;28;20476;-53
2022/03/29 00:52:52;;;;;;;5.95;5.45;;;;;;;;;;5067777;28;20024;-51
2022/03/29 00:55:18;;;;;;;5.47;4.97;;;;;;;;;;5071653;28;20847;-52
2022/03/29 00:57:45;;;;;;;5.55;5.05;;;;;;;;;;5073033;28;20027;-50
2022/03/29 01:00:12;;;;;;;6.20;5.70;;;;;;;;;;5069343;28;20028;-53
2022/03/29 01:02:38;;;;;;;6.50;5.90;;;;;;;;;;5066573;28;20036;-53
2022/03/29 01:05:04;;;;;;;5.72;5.22;;;;;;;;;;5069682;28;20029;-51
2022/03/29 01:07:29;;;;;;;7.07;6.38;;;;;;;;;;5070642;28;20066;-53
2022/03/29 01:09:56;;;;;;;5.68;5.22;;;;;;;;;;5074743;28;20040;-52
2022/03/29 01:12:24;;;;;;;4.80;4.40;;;;;;;;;;5075054;28;20036;-53
2022/03/29 01:14:50;;;;;;;5.50;5.00;;;;;;;;;;5074851;28;20035;-52
2022/03/29 01:20:17;;;;;;;5.55;5.05;;;;;;;;;;5077918;28;20105;-54
2022/03/29 01:22:45;;;;;;;7.03;5.55;;;;;;;;;;5076356;28;20028;-51
2022/03/29 01:25:25;;;;;;;10.90;6.25;;;;;;;;;;5075724;28;20056;-52
2022/03/29 01:27:52;;;;;;;5.53;5.03;;;;;;;;;;5073875;28;20106;-50
2022/03/29 01:30:18;;;;;;;5.95;5.45;;;;;;;;;;5076286;28;20020;-53
2022/03/29 01:32:46;;;;;;;7.03;6.35;;;;;;;;;;5075066;28;20454;-50
2022/03/29 01:35:12;;;;;;;6.53;5.93;;;;;;;;;;5075141;28;20056;-53
2022/03/29 01:37:38;;;;;;;7.07;6.45;;;;;;;;;;5073601;28;20067;-52
2022/03/29 01:40:15;;;;;;;9.73;6.55;;;;;;;;;;5072303;28;20048;-53
2022/03/29 01:42:47;;;;;;;6.30;5.07;;;;;;;;;;5059396;28;20052;-53
2022/03/29 01:45:13;;;;;;;6.20;5.57;;;;;;;;;;5077789;28;20078;-50
2022/03/29 01:47:38;;;;;;;5.22;4.82;;;;;;;;;;5076392;28;20040;-53
2022/03/29 01:50:04;;;;;;;5.15;4.53;;;;;;;;;;5075891;28;20036;-53
2022/03/29 01:52:38;;;;;;;5.75;5.30;;;;;;;;;;5074916;28;20020;-52
2022/03/29 01:55:03;;;;;;;5.38;4.93;;;;;;;;;;5071844;28;20020;-52
2022/03/29 01:57:29;;;;;;;5.50;5.00;;;;;;;;;;5076726;28;20028;-53
2022/03/29 02:02:39;;;;;;;5.85;5.35;;;;;;;;;;5073898;28;20047;-54
2022/03/29 02:05:04;;;;;;;5.97;5.47;;;;;;;;;;5074734;28;20020;-53
2022/03/29 02:07:30;;;;;;;5.25;4.05;;;;;;;;;;5076237;28;20039;-49
2022/03/29 02:09:56;;;;;;;5.28;4.78;;;;;;;;;;5069395;28;20032;-53
2022/03/29 02:12:21;;;;;;;5.47;4.97;;;;;;;;;;5076256;28;20744;-53
2022/03/29 02:14:46;;;;;;;4.85;4.35;;;;;;;;;;5075789;28;20576;-52
2022/03/29 02:17:12;;;;;;;10.15;6.72;;;;;;;;;;5074323;28;20377;-50
2022/03/29 02:19:37;;;;;;;6.47;4.15;;;;;;;;;;5076586;28;20552;-52
2022/03/29 02:22:03;;;;;;;5.22;4.82;;;;;;;;;;5075327;28;20028;-53
2022/03/29 02:24:28;;;;;;;5.72;5.22;;;;;;;;;;5074431;28;20086;-51
2022/03/29 02:26:54;;;;;;;8.07;5.85;;;;;;;;;;5070894;28;20029;-52
2022/03/29 02:29:19;;;;;;;5.15;4.75;;;;;;;;;;5075134;28;20067;-53
2022/03/29 02:31:44;;;;;;;8.00;5.15;;;;;;;;;;5074651;28;20143;-53
2022/03/29 02:34:10;;;;;;;6.15;5.10;;;;;;;;;;5072719;28;20043;-54
2022/03/29 02:36:35;;;;;;;5.25;4.75;;;;;;;;;;5077131;28;20056;-53
2022/03/29 02:39:00;;;;;;;4.75;4.35;;;;;;;;;;5072156;28;20036;-52
2022/03/29 02:41:26;;;;;;;5.15;4.68;;;;;;;;;;5073828;28;20475;-52
2022/03/29 02:43:52;;;;;;;6.10;5.50;;;;;;;;;;5069668;28;20755;-53
2022/03/29 02:46:19;;;;;;;5.20;4.70;;;;;;;;;;5073057;28;21023;-51
2022/03/29 02:48:44;;;;;;;5.53;5.03;;;;;;;;;;5076041;28;20364;-50
2022/03/29 02:51:10;;;;;;;4.45;4.05;;;;;;;;;;5075291;28;20024;-52
2022/03/29 02:53:35;;;;;;;5.82;5.28;;;;;;;;;;5074123;28;20089;-53
2022/03/29 02:56:00;;;;;;;5.35;4.85;;;;;;;;;;5073303;28;20032;-55
2022/03/29 02:58:26;;;;;;;6.10;5.20;;;;;;;;;;5074401;28;20030;-49
2022/03/29 03:00:52;;;;;;;4.32;3.92;;;;;;;;;;5070422;28;20036;-51
2022/03/29 03:03:17;;;;;;;4.82;4.43;;;;;;;;;;5073750;28;20024;-52
2022/03/29 03:05:43;;;;;;;5.57;5.07;;;;;;;;;;5071339;28;20026;-50
2022/03/29 03:08:08;;;;;;;5.20;4.70;;;;;;;;;;5076034;28;20441;-53
2022/03/29 03:10:34;;;;;;;6.38;5.78;;;;;;;;;;5073498;28;20071;-52
2022/03/29 03:12:59;;;;;;;5.07;4.63;;;;;;;;;;5072870;28;20056;-50
2022/03/29 03:15:25;;;;;;;5.63;5.07;;;;;;;;;;5071550;28;20035;-50
2022/03/29 03:17:52;;;;;;;9.13;4.85;;;;;;;;;;5076997;28;20033;-51
2022/03/29 03:20:18;;;;;;;5.97;5.47;;;;;;;;;;5074150;28;20468;-53
2022/03/29 03:22:43;;;;;;;6.28;5.65;;;;;;;;;;5075715;28;20024;-52
2022/03/29 03:25:10;;;;;;;6.15;5.65;;;;;;;;;;5070612;28;20032;-52
2022/03/29 03:27:36;;;;;;;4.40;4.00;;;;;;;;;;5073367;28;20031;-49
2022/03/29 03:30:06;;;;;;;5.63;5.13;;;;;;;;;;5074517;28;20028;-52
2022/03/29 03:32:31;;;;;;;4.65;4.25;;;;;;;;;;5070378;28;20029;-51
2022/03/29 03:34:57;;;;;;;5.82;4.47;;;;;;;;;;5069112;28;20450;-53
2022/03/29 03:37:23;;;;;;;5.82;5.32;;;;;;;;;;5071440;28;20035;-50
2022/03/29 03:39:49;;;;;;;5.45;4.95;;;;;;;;;;5063514;28;20088;-52
2022/03/29 03:42:14;;;;;;;4.82;4.43;;;;;;;;;;5067922;28;20115;-50
2022/03/29 03:44:40;;;;;;;6.55;5.03;;;;;;;;;;5066090;28;21176;-53
2022/03/29 03:47:08;;;;;;;5.13;4.72;;;;;;;;;;5066447;28;20537;-50
2022/03/29 03:49:37;;;;;;;4.40;4.00;;;;;;;;;;5066525;28;20162;-50
2022/03/29 03:52:04;;;;;;;6.72;4.82;;;;;;;;;;5071622;28;20147;-50
2022/03/29 03:54:29;;;;;;;5.72;5.22;;;;;;;;;;5074359;28;20107;-51
2022/03/29 03:56:54;;;;;;;6.03;5.53;;;;;;;;;;5070706;28;20159;-51
2022/03/29 03:59:21;;;;;;;5.50;5.00;;;;;;;;;;5069623;28;20468;-51
2022/03/29 04:01:46;;;;;;;5.57;5.07;;;;;;;;;;5067131;28;20639;-51
2022/03/29 04:04:12;;;;;;;11.77;5.95;;;;;;;;;;5070994;28;20064;-51
2022/03/29 04:06:37;;;;;;;5.40;4.90;;;;;;;;;;5072583;28;20062;-52
2022/03/29 04:09:02;;;;;;;5.97;5.38;;;;;;;;;;5068217;28;20048;-52
2022/03/29 04:11:28;;;;;;;5.65;5.15;;;;;;;;;;5075619;28;20131;-51
2022/03/29 04:13:54;;;;;;;4.07;3.75;;;;;;;;;;5073645;28;20032;-52
2022/03/29 04:16:20;;;;;;;6.50;5.65;;;;;;;;;;5075151;28;20467;-52
2022/03/29 04:18:45;;;;;;;5.63;5.13;;;;;;;;;;5071360;28;20068;-54
2022/03/29 04:21:11;;;;;;;5.43;4.85;;;;;;;;;;5072278;28;20036;-54
2022/03/29 04:23:37;;;;;;;4.95;4.35;;;;;;;;;;5070940;28;20044;-52
2022/03/29 04:26:04;;;;;;;8.52;5.40;;;;;;;;;;5073996;28;20028;-50
2022/03/29 04:28:31;;;;;;;6.47;5.68;;;;;;;;;;5068316;28;20116;-54
2022/03/29 04:30:58;;;;;;;5.00;4.53;;;;;;;;;;5069415;28;20066;-54
2022/03/29 04:33:24;;;;;;;9.15;7.90;;;;;;;;;;5070959;28;20099;-51
2022/03/29 04:35:50;;;;;;;5.15;4.63;;;;;;;;;;5068102;28;20143;-53
2022/03/29 04:38:15;;;;;;;5.28;4.72;;;;;;;;;;5072567;28;20024;-54
2022/03/29 04:40:40;;;;;;;7.40;5.65;;;;;;;;;;5064624;28;20059;-53
2022/03/29 04:43:06;;;;;;;4.82;4.43;;;;;;;;;;5065471;28;20029;-52
2022/03/29 04:45:31;;;;;;;5.53;4.72;;;;;;;;;;5074731;28;20051;-53
2022/03/29 04:47:57;;;;;;;4.93;4.45;;;;;;;;;;5073189;28;20043;-53
2022/03/29 04:50:22;;;;;;;4.90;4.50;;;;;;;;;;5072908;28;20457;-51
2022/03/29 04:52:47;;;;;;;5.38;4.88;;;;;;;;;;5077400;28;20035;-51
2022/03/29 04:55:14;;;;;;;5.38;4.88;;;;;;;;;;5076563;28;20388;-51
2022/03/29 04:57:44;;;;;;;6.93;5.63;;;;;;;;;;5076711;28;20667;-50
2022/03/29 05:00:12;;;;;;;6.50;5.60;;;;;;;;;;5073433;28;20040;-54
2022/03/29 05:02:39;;;;;;;6.88;6.18;;;;;;;;;;5075937;28;20429;-53
2022/03/29 05:05:05;;;;;;;4.93;4.53;;;;;;;;;;5073804;28;20054;-53
2022/03/29 05:07:30;;;;;;;5.38;4.88;;;;;;;;;;5079238;28;20104;-53
2022/03/29 05:09:56;;;;;;;9.52;6.25;;;;;;;;;;5073921;28;20032;-52
2022/03/29 05:12:21;;;;;;;7.60;6.93;;;;;;;;;;5073044;28;20036;-55
2022/03/29 05:14:47;;;;;;;5.75;4.85;;;;;;;;;;5072820;28;20032;-52
2022/03/29 05:17:12;;;;;;;7.63;6.63;;;;;;;;;;5066407;28;20036;-51
2022/03/29 05:19:37;;;;;;;6.57;5.97;;;;;;;;;;5071936;28;20061;-52
2022/03/29 05:22:04;;;;;;;6.07;5.53;;;;;;;;;;5069569;28;20111;-53
2022/03/29 05:24:29;;;;;;;6.45;5.40;;;;;;;;;;5066934;28;20112;-51
2022/03/29 05:26:54;;;;;;;5.82;5.22;;;;;;;;;;5059470;28;20474;-52
2022/03/29 05:29:20;;;;;;;6.07;5.57;;;;;;;;;;5069691;28;20036;-50
2022/03/29 05:31:46;;;;;;;6.13;5.63;;;;;;;;;;5065704;28;20124;-52
2022/03/29 05:34:13;;;;;;;7.72;6.70;;;;;;;;;;5067719;28;20081;-49
2022/03/29 05:36:43;;;;;;;6.43;5.88;;;;;;;;;;5065417;28;20047;-53
2022/03/29 05:39:09;;;;;;;11.40;6.10;;;;;;;;;;5067716;28;20062;-51
2022/03/29 05:41:35;;;;;;;6.40;5.20;;;;;;;;;;5070914;28;20731;-51
2022/03/29 05:44:00;;;;;;;6.47;5.88;;;;;;;;;;5059611;28;20024;-51
2022/03/29 05:49:10;;;;;;;6.30;5.70;;;;;;;;;;5068244;28;20028;-52
2022/03/29 05:51:35;;;;;;;6.53;5.93;;;;;;;;;;5070974;28;20025;-52
2022/03/29 05:54:04;;;;;;;6.95;6.35;;;;;;;;;;5068612;28;20097;-53
2022/03/29 05:56:30;;;;;;;6.22;5.60;;;;;;;;;;5067777;28;20044;-53
2022/03/29 05:58:56;;;;;;;7.88;5.70;;;;;;;;;;5064396;28;20032;-52
2022/03/29 06:01:21;;;;;;;10.00;6.68;;;;;;;;;;5065752;28;20036;-49
2022/03/29 06:03:46;;;;;;;8.13;6.22;;;;;;;;;;5069315;28;20041;-51
2022/03/29 06:06:13;;;;;;;6.45;5.82;;;;;;;;;;5063031;28;20127;-52
2022/03/29 06:08:38;;;;;;;6.68;6.00;;;;;;;;;;5067573;28;20063;-53
2022/03/29 06:11:04;;;;;;;6.28;5.72;;;;;;;;;;5068950;28;20366;-53
2022/03/29 06:13:30;;;;;;;7.72;6.85;;;;;;;;;;5065751;28;20032;-50
2022/03/29 06:15:55;;;;;;;7.90;7.13;;;;;;;;;;5066784;28;20043;-52
2022/03/29 06:18:21;;;;;;;7.13;6.43;;;;;;;;;;5069955;28;20016;-53
2022/03/29 06:20:48;;;;;;;14.35;6.45;;;;;;;;;;5065443;28;20032;-50
2022/03/29 06:23:13;;;;;;;9.15;6.70;;;;;;;;;;5065335;28;20094;-52
2022/03/29 06:25:39;;;;;;;6.38;5.78;;;;;;;;;;5062254;28;20432;-53
2022/03/29 06:28:04;;;;;;;11.05;8.13;;;;;;;;;;5060133;28;20482;-50
2022/03/29 06:30:30;;;;;;;7.53;6.38;;;;;;;;;;5061666;28;20605;-52
2022/03/29 06:32:55;;;;;;;5.75;5.25;;;;;;;;;;5058116;28;20028;-53
2022/03/29 06:35:25;;;;;;;7.00;6.32;;;;;;;;;;5060504;28;20027;-53
2022/03/29 06:37:52;;;;;;;9.32;6.85;;;;;;;;;;5069326;28;20170;-53
2022/03/29 06:40:18;;;;;;;6.80;6.10;;;;;;;;;;5072330;28;20032;-52
2022/03/29 06:42:43;;;;;;;12.68;7.30;;;;;;;;;;5064855;28;20047;-52
2022/03/29 06:45:10;;;;;;;7.15;6.50;;;;;;;;;;5064288;28;20032;-53
2022/03/29 06:47:36;;;;;;;10.07;6.88;;;;;;;;;;5067239;28;20054;-51
2022/03/29 06:50:04;;;;;;;7.97;7.10;;;;;;;;;;5066016;28;20686;-53
2022/03/29 06:52:37;;;;;;;18.38;7.13;;;;;;;;;;5064251;28;20046;-51
2022/03/29 06:55:04;;;;;;;19.45;7.43;;;;;;;;;;5069431;28;20127;-50
2022/03/29 06:57:29;;;;;;;8.90;8.10;;;;;;;;;;5067229;28;20036;-52
2022/03/29 06:59:55;;;;;;;7.40;6.15;;;;;;;;;;5067916;28;20043;-52
2022/03/29 07:02:20;;;;;;;7.72;6.57;;;;;;;;;;5063407;28;20044;-51
2022/03/29 07:04:46;;;;;;;8.60;7.00;;;;;;;;;;5070438;28;20671;-52
2022/03/29 07:07:12;;;;;;;7.57;5.90;;;;;;;;;;5068285;28;20057;-53
2022/03/29 07:12:21;;;;;;;7.10;6.50;;;;;;;;;;5062867;28;20445;-50
2022/03/29 07:14:47;;;;;;;6.40;5.78;;;;;;;;;;5062670;28;20102;-50
2022/03/29 07:17:15;;;;;;;9.30;8.15;;;;;;;;;;5067325;28;20059;-55
2022/03/29 07:19:41;;;;;;;8.25;6.55;;;;;;;;;;5068275;28;20105;-51
2022/03/29 07:22:06;;;;;;;9.65;8.10;;;;;;;;;;5068878;28;20028;-54
2022/03/29 07:24:32;;;;;;;6.85;6.25;;;;;;;;;;5069211;28;20135;-53
2022/03/29 07:26:58;;;;;;;6.53;5.75;;;;;;;;;;5070445;28;20036;-51
2022/03/29 07:29:23;;;;;;;10.25;7.30;;;;;;;;;;5066229;28;20032;-53
2022/03/29 07:31:49;;;;;;;8.05;7.25;;;;;;;;;;5070209;28;20040;-54
2022/03/29 07:34:15;;;;;;;7.15;6.50;;;;;;;;;;5067107;28;20058;-52
2022/03/29 07:36:41;;;;;;;9.02;8.25;;;;;;;;;;5069570;28;20062;-52
2022/03/29 07:39:07;;;;;;;7.35;6.65;;;;;;;;;;5070701;28;20491;-53
2022/03/29 07:41:32;;;;;;;10.18;8.50;;;;;;;;;;5071390;28;20059;-52
2022/03/29 07:43:58;;;;;;;7.68;6.93;;;;;;;;;;5073596;28;20040;-53
2022/03/29 07:46:24;;;;;;;7.57;6.55;;;;;;;;;;5071120;28;20389;-50
2022/03/29 07:48:49;;;;;;;7.88;7.10;;;;;;;;;;5071476;28;20135;-53
2022/03/29 07:51:16;;;;;;;7.13;6.53;;;;;;;;;;5070249;28;20028;-49
2022/03/29 07:53:42;;;;;;;7.30;6.60;;;;;;;;;;5087576;28;20458;-52
2022/03/29 07:56:07;;;;;;;7.50;6.80;;;;;;;;;;5069023;28;20097;-53
2022/03/29 07:58:33;;;;;;;8.27;7.47;;;;;;;;;;5061817;28;20123;-53
2022/03/29 08:00:59;;;;;;;8.88;7.95;;;;;;;;;;5066880;28;20116;-52
2022/03/29 08:03:32;;;;;;;7.15;6.13;;;;;;;;;;5069666;28;20047;-52
2022/03/29 08:05:57;;;;;;;12.35;8.70;;;;;;;;;;5066254;28;20050;-52
2022/03/29 08:08:23;;;;;;;10.85;8.40;;;;;;;;;;5067839;28;20462;-53
2022/03/29 08:10:49;;;;;;;8.50;7.80;;;;;;;;;;5069215;28;20443;-52
2022/03/29 08:13:15;;;;;;;7.95;7.10;;;;;;;;;;5068497;28;20047;-53
2022/03/29 08:15:43;;;;;;;9.55;8.50;;;;;;;;;;5068389;28;20516;-51
2022/03/29 08:18:08;;;;;;;7.63;7.03;;;;;;;;;;5069256;28;20519;-53
2022/03/29 08:20:35;;;;;;;7.65;6.95;;;;;;;;;;5071570;28;20088;-55
2022/03/29 08:23:01;;;;;;;8.88;7.88;;;;;;;;;;5071223;28;20098;-53
2022/03/29 08:25:31;;;;;;;8.63;7.93;;;;;;;;;;5071642;28;20403;-54
2022/03/29 08:27:58;;;;;;;8.57;6.47;;;;;;;;;;5071071;28;20729;-54
2022/03/29 08:30:25;;;;;;;8.70;7.95;;;;;;;;;;5072098;28;20040;-53
2022/03/29 08:32:51;;;;;;;10.68;9.02;;;;;;;;;;5071435;28;20079;-54
2022/03/29 08:35:17;;;;;;;10.63;9.73;;;;;;;;;;5070567;28;20776;-55
2022/03/29 08:37:42;;;;;;;8.77;8.00;;;;;;;;;;5072044;28;20039;-55
2022/03/29 08:40:13;;;;;;;9.88;8.90;;;;;;;;;;5071242;28;20029;-55
2022/03/29 08:42:43;;;;;;;7.38;6.70;;;;;;;;;;5072152;28;20035;-54
2022/03/29 08:45:10;;;;;;;6.28;5.78;;;;;;;;;;5068913;28;20663;-54
2022/03/29 08:47:36;;;;;;;7.97;7.28;;;;;;;;;;5070299;28;20521;-54
2022/03/29 08:50:06;;;;;;;8.80;8.00;;;;;;;;;;5068988;28;20036;-56
2022/03/29 08:52:32;;;;;;;8.43;7.63;;;;;;;;;;5074257;28;20897;-51
2022/03/29 08:54:58;;;;;;;7.75;7.10;;;;;;;;;;5071889;28;20115;-53
2022/03/29 08:57:24;;;;;;;7.82;7.13;;;;;;;;;;5074736;28;20051;-54
2022/03/29 08:59:49;;;;;;;8.45;7.30;;;;;;;;;;5075067;28;20488;-54
2022/03/29 09:02:16;;;;;;;7.63;6.97;;;;;;;;;;5069864;28;20036;-53
2022/03/29 09:05:02;;;;;;;8.15;6.90;;;;;;;;;;5074587;28;20556;-55
2022/03/29 09:07:45;;;;;;;7.85;7.05;;;;;;;;;;5074928;28;20477;-52
2022/03/29 09:10:12;;;;;;;6.93;5.97;;;;;;;;;;5072671;28;20036;-53
2022/03/29 09:12:38;;;;;;;7.63;6.97;;;;;;;;;;5073822;28;20040;-53
2022/03/29 09:15:04;;;;;;;7.55;6.85;;;;;;;;;;5075706;28;20721;-52
2022/03/29 09:17:35;;;;;;;6.88;6.32;;;;;;;;;;5067485;28;20028;-53
2022/03/29 09:20:23;;;;;;;10.40;8.05;;;;;;;;;;5048558;28;20024;-52
2022/03/29 09:22:55;;;;;;;6.93;6.32;;;;;;;;;;5070105;28;20048;-54
2022/03/29 09:25:23;;;;;;;9.43;8.05;;;;;;;;;;5071089;28;20033;-54
2022/03/29 09:28:00;;;;;;;7.43;6.82;;;;;;;;;;5069324;28;20044;-55
2022/03/29 09:30:28;;;;;;;7.88;7.15;;;;;;;;;;5068048;28;20119;-54
2022/03/29 09:33:05;;;;;;;8.57;7.65;;;;;;;;;;5069010;28;20068;-54
2022/03/29 09:35:37;;;;;;;7.75;7.13;;;;;;;;;;5073505;28;20031;-54
2022/03/29 09:38:30;;;;;;;7.38;6.78;;;;;;;;;;5072583;28;20031;-54
2022/03/29 09:40:57;;;;;;;7.95;7.40;;;;;;;;;;5071905;28;20036;-51
2022/03/29 09:43:24;;;;;;;8.30;7.60;;;;;;;;;;5068135;28;20159;-52
2022/03/29 09:45:52;;;;;;;7.63;7.00;;;;;;;;;;5066768;28;20872;-54
2022/03/29 09:48:26;;;;;;;8.57;7.85;;;;;;;;;;5068851;28;20036;-55
2022/03/29 09:50:57;;;;;;;10.05;9.02;;;;;;;;;;5068531;28;20174;-52
2022/03/29 09:53:36;;;;;;;;;;;;;;;;;;5071561;28;20025;-54
2022/03/29 09:56:02;;;;;;;7.03;6.32;;;;;;;;;;5070319;28;19922;-51
2022/03/29 09:58:28;;;;;;;9.65;8.75;;;;;;;;;;5070740;28;20025;-53
2022/03/29 10:00:55;;;;;;;9.95;7.75;;;;;;;;;;5068849;28;20043;-54
2022/03/29 10:03:24;;;;;;;7.47;6.88;;;;;;;;;;5073629;28;20032;-54
2022/03/29 10:05:50;;;;;;;7.75;7.15;;;;;;;;;;5072645;28;20052;-53
2022/03/29 10:11:16;;;;;;;10.32;8.77;;;;;;;;;;5071339;28;20028;-53
2022/03/29 10:13:42;;;;;;;8.25;7.65;;;;;;;;;;5069771;28;20397;-56
2022/03/29 10:16:13;;;;;;;9.02;8.20;;;;;;;;;;5068496;28;20032;-55
2022/03/29 10:18:41;;;;;;;8.48;7.78;;;;;;;;;;5069461;28;20032;-54
2022/03/29 10:21:10;;;;;;;9.13;8.32;;;;;;;;;;5073498;28;20126;-52
2022/03/29 10:23:36;;;;;;;8.23;7.63;;;;;;;;;;5071359;28;20043;-53
2022/03/29 10:26:03;;;;;;;8.98;8.23;;;;;;;;;;5069580;28;20020;-52
2022/03/29 10:28:29;;;;;;;7.70;7.10;;;;;;;;;;5071696;28;20031;-53
2022/03/29 10:30:55;;;;;;;8.68;7.85;;;;;;;;;;5068567;28;20035;-54
2022/03/29 10:33:23;;;;;;;9.23;8.45;;;;;;;;;;5069932;28;20028;-54
2022/03/29 10:36:00;;;;;;;8.93;8.27;;;;;;;;;;5069871;28;20036;-50
2022/03/29 10:38:47;;;;;;;8.57;7.93;;;;;;;;;;5067713;28;20028;-52
2022/03/29 10:41:44;;;;;;;9.57;8.85;;;;;;;;;;5068077;28;20024;-53
2022/03/29 10:44:11;;;;;;;9.88;8.02;;;;;;;;;;5069578;28;20044;-50
2022/03/29 10:46:38;;;;;;;8.32;7.72;;;;;;;;;;5055098;28;20104;-54
2022/03/29 10:49:22;;;;;;;9.10;7.97;;;;;;;;;;5068558;28;20028;-53
2022/03/29 10:51:49;;;;;;;8.48;7.47;;;;;;;;;;5068871;28;20048;-52
2022/03/29 10:54:27;;;;;;;8.85;8.00;;;;;;;;;;5070365;28;20060;-51
2022/03/29 10:57:01;;;;;;;8.10;7.50;;;;;;;;;;5067455;28;20719;-51
2022/03/29 10:59:29;;;;;;;7.65;7.05;;;;;;;;;;5067887;28;20032;-52
2022/03/29 11:02:15;;;;;;;8.02;7.35;;;;;;;;;;5067710;28;20040;-51
2022/03/29 11:05:00;;;;;;;9.02;8.23;;;;;;;;;;5068171;28;20579;-51
2022/03/29 11:07:26;;;;;;;9.68;7.45;;;;;;;;;;5074821;28;20024;-51
2022/03/29 11:10:06;;;;;;;9.10;8.30;;;;;;;;;;5066645;28;20123;-51
2022/03/29 11:12:46;;;;;;;8.32;7.65;;;;;;;;;;5067464;28;20047;-54
2022/03/29 11:15:23;;;;;;;7.53;6.40;;;;;;;;;;5068870;28;20027;-51
2022/03/29 11:17:49;;;;;;;9.60;8.73;;;;;;;;;;5067195;28;20063;-55
2022/03/29 11:20:33;;;;;;;9.93;8.13;;;;;;;;;;5069493;28;20028;-54
2022/03/29 11:23:05;;;;;;;9.23;8.48;;;;;;;;;;5066208;28;20046;-54
2022/03/29 11:25:41;;;;;;;8.35;7.55;;;;;;;;;;5066601;28;20047;-55
2022/03/29 11:28:12;;;;;;;8.73;8.02;;;;;;;;;;5069978;28;20050;-55
2022/03/29 11:30:37;;;;;;;;;;;;;;;;;;5069374;28;20036;-54
2022/03/29 11:33:04;;;;;;;9.02;8.13;;;;;;;;;;5066373;28;19946;-53
2022/03/29 11:35:34;;;;;;;10.32;8.77;;;;;;;;;;5067733;28;20620;-54
2022/03/29 11:38:13;;;;;;;8.57;7.78;;;;;;;;;;5066674;28;20067;-55
2022/03/29 11:40:40;;;;;;;11.77;8.27;;;;;;;;;;5067940;28;21260;-50
2022/03/29 11:43:10;;;;;;;9.50;8.65;;;;;;;;;;5067672;28;20040;-51
2022/03/29 11:45:42;;;;;;;11.15;7.63;;;;;;;;;;5066808;28;20028;-55
2022/03/29 11:48:12;;;;;;;11.68;10.57;;;;;;;;;;5068609;28;20036;-51
2022/03/29 11:50:53;;;;;;;8.90;8.18;;;;;;;;;;5067247;28;20140;-52
2022/03/29 11:53:28;;;;;;;9.20;7.75;;;;;;;;;;5065192;28;20044;-52
2022/03/29 11:56:04;;;;;;;9.65;8.90;;;;;;;;;;5066657;28;20081;-51
2022/03/29 11:58:35;;;;;;;10.40;9.40;;;;;;;;;;5068611;28;20183;-53
2022/03/29 12:01:03;;;;;;;8.35;7.75;;;;;;;;;;5069393;28;20415;-53
2022/03/29 12:03:40;;;;;;;9.75;9.00;;;;;;;;;;5068938;28;20833;-54
2022/03/29 12:06:12;;;;;;;8.45;7.85;;;;;;;;;;5070310;28;20066;-50
2022/03/29 12:08:44;;;;;;;9.70;8.90;;;;;;;;;;5068045;28;20086;-53
2022/03/29 12:11:09;;;;;;;9.27;8.45;;;;;;;;;;5067714;28;20044;-51
2022/03/29 12:13:35;;;;;;;9.15;8.35;;;;;;;;;;5068473;28;20047;-52
2022/03/29 12:16:23;;;;;;;8.50;7.80;;;;;;;;;;5069629;28;20111;-56
2022/03/29 12:18:50;;;;;;;10.25;8.52;;;;;;;;;;5067901;28;20032;-53
2022/03/29 12:21:19;;;;;;;8.45;7.85;;;;;;;;;;5064472;28;20043;-53
2022/03/29 12:23:46;;;;;;;8.88;8.18;;;;;;;;;;5072468;28;20147;-53
2022/03/29 12:26:13;;;;;;;8.95;8.05;;;;;;;;;;5067136;28;20112;-53
2022/03/29 12:28:41;;;;;;;9.27;8.57;;;;;;;;;;5067044;28;20033;-51
2022/03/29 12:31:16;;;;;;;9.55;8.85;;;;;;;;;;5065646;28;20039;-52
2022/03/29 12:33:42;;;;;;;7.78;7.18;;;;;;;;;;5063569;28;20024;-51
2022/03/29 12:36:10;;;;;;;9.18;8.48;;;;;;;;;;5065751;28;20040;-53
2022/03/29 12:38:52;;;;;;;8.95;8.13;;;;;;;;;;5070939;28;20036;-50
2022/03/29 12:41:38;;;;;;;10.77;9.88;;;;;;;;;;5065497;28;20496;-48
2022/03/29 12:44:16;;;;;;;8.38;7.78;;;;;;;;;;5062741;28;20063;-52
2022/03/29 12:46:44;;;;;;;12.70;11.60;;;;;;;;;;5062497;28;20037;-54
2022/03/29 12:49:10;;;;;;;10.70;9.85;;;;;;;;;;5065310;28;22198;-54
2022/03/29 12:51:37;;;;;;;8.27;7.68;;;;;;;;;;5061535;28;20769;-53
2022/03/29 12:54:11;;;;;;;11.10;9.02;;;;;;;;;;5058888;28;20029;-53
2022/03/29 12:56:43;;;;;;;9.30;8.60;;;;;;;;;;5061620;28;20140;-53
2022/03/29 12:59:36;;;;;;;11.40;9.52;;;;;;;;;;5061034;28;20037;-57
2022/03/29 13:02:19;;;;;;;8.50;7.88;;;;;;;;;;5060196;28;20044;-52
2022/03/29 13:04:48;;;;;;;9.73;8.93;;;;;;;;;;5066548;28;20043;-53
2022/03/29 13:07:44;;;;;;;11.32;9.95;;;;;;;;;;5067236;28;20067;-52
2022/03/29 13:10:15;;;;;;;10.32;9.30;;;;;;;;;;5063282;28;20432;-53
2022/03/29 13:12:51;;;;;;;10.23;9.38;;;;;;;;;;5069016;28;20059;-50
2022/03/29 13:15:41;;;;;;;11.27;10.38;;;;;;;;;;5065084;28;20024;-52
2022/03/29 13:18:32;;;;;;;16.08;11.13;;;;;;;;;;5064176;28;20033;-54
2022/03/29 13:21:20;;;;;;;10.93;9.98;;;;;;;;;;5052642;28;20059;-53
2022/03/29 13:23:51;;;;;;;9.23;8.63;;;;;;;;;;5070266;28;20083;-53
2022/03/29 13:26:24;;;;;;;10.18;9.43;;;;;;;;;;5065965;28;20028;-51
2022/03/29 13:28:51;;;;;;;10.57;9.68;;;;;;;;;;5065326;28;20064;-54
2022/03/29 13:31:17;;;;;;;10.63;9.95;;;;;;;;;;5059711;28;20549;-55
2022/03/29 13:33:48;;;;;;;11.98;11.18;;;;;;;;;;5062462;28;20117;-55
2022/03/29 13:36:17;;;;;;;10.32;9.60;;;;;;;;;;5064461;28;20528;-53
2022/03/29 13:38:44;;;;;;;12.95;11.57;;;;;;;;;;5065768;28;20089;-52
2022/03/29 13:41:10;;;;;;;11.77;10.73;;;;;;;;;;5065253;28;20683;-55
2022/03/29 13:43:36;;;;;;;10.73;9.95;;;;;;;;;;5065137;28;20048;-55
2022/03/29 13:46:03;;;;;;;11.73;10.85;;;;;;;;;;5065554;28;20058;-55
2022/03/29 13:48:29;;;;;;;11.57;10.80;;;;;;;;;;5066156;28;20044;-54
2022/03/29 13:50:56;;;;;;;11.52;10.70;;;;;;;;;;5067885;28;20041;-54
2022/03/29 13:53:22;;;;;;;11.95;11.05;;;;;;;;;;5065128;28;20106;-55
2022/03/29 13:55:48;;;;;;;13.20;12.23;;;;;;;;;;5064900;28;20044;-56
2022/03/29 13:58:14;;;;;;;12.65;11.65;;;;;;;;;;5067287;28;20040;-56
2022/03/29 14:00:40;;;;;;;10.68;9.88;;;;;;;;;;5065544;28;20044;-54
2022/03/29 14:03:08;;;;;;;10.48;9.77;;;;;;;;;;5065962;28;20461;-56
2022/03/29 14:05:38;;;;;;;12.38;11.23;;;;;;;;;;5067186;28;20389;-56
2022/03/29 14:08:04;;;;;;;11.70;10.85;;;;;;;;;;5067367;28;20115;-54
2022/03/29 14:10:30;;;;;;;12.07;11.15;;;;;;;;;;5069671;28;20172;-55
2022/03/29 14:12:56;;;;;;;10.48;9.48;;;;;;;;;;5070274;28;20110;-55
2022/03/29 14:15:22;;;;;;;11.73;10.93;;;;;;;;;;5070349;28;20082;-54
2022/03/29 14:17:47;;;;;;;12.13;11.07;;;;;;;;;;5069307;28;20040;-52
2022/03/29 14:20:16;;;;;;;12.65;11.57;;;;;;;;;;5072292;28;20062;-53
2022/03/29 14:22:44;;;;;;;11.93;11.02;;;;;;;;;;5066304;28;20036;-54
2022/03/29 14:25:11;;;;;;;12.82;11.93;;;;;;;;;;5062681;28;20422;-55
2022/03/29 14:27:37;;;;;;;11.95;11.05;;;;;;;;;;5066343;28;20064;-56
2022/03/29 14:30:06;;;;;;;14.07;11.05;;;;;;;;;;5065313;28;20108;-54
2022/03/29 14:32:35;;;;;;;10.88;10.07;;;;;;;;;;5070743;28;20035;-55
2022/03/29 14:35:05;;;;;;;10.32;9.65;;;;;;;;;;5063908;28;20028;-55
2022/03/29 14:37:34;;;;;;;11.82;10.93;;;;;;;;;;5064975;28;20034;-52
2022/03/29 14:40:03;;;;;;;9.40;8.80;;;;;;;;;;5064633;28;20088;-54
2022/03/29 14:42:29;;;;;;;12.10;11.20;;;;;;;;;;5064449;28;20047;-55
2022/03/29 14:44:54;;;;;;;10.43;9.63;;;;;;;;;;5066693;28;20068;-53
2022/03/29 14:47:21;;;;;;;9.27;8.48;;;;;;;;;;5067495;28;20091;-54
2022/03/29 14:49:47;;;;;;;12.02;11.07;;;;;;;;;;5065837;28;20162;-53
2022/03/29 14:52:13;;;;;;;8.95;8.15;;;;;;;;;;5060186;28;20056;-55
2022/03/29 14:54:39;;;;;;;12.10;10.88;;;;;;;;;;5063149;28;20055;-55
2022/03/29 14:57:05;;;;;;;10.73;9.75;;;;;;;;;;5063145;28;20028;-54
2022/03/29 14:59:31;;;;;;;8.80;8.10;;;;;;;;;;5063135;28;20054;-55
2022/03/29 15:01:56;;;;;;;9.07;8.35;;;;;;;;;;5064040;28;20127;-55